createdAt,value
2023-03-21T00:01:13.771Z,66.67
2023-03-21T00:06:23.418Z,66.61
2023-03-21T00:11:32.160Z,66.89
2023-03-21T00:16:40.670Z,66.93
2023-03-21T00:22:07.112Z,66.91
2023-03-21T00:32:55.452Z,66.98
2023-03-21T00:38:05.963Z,66.99
2023-03-21T00:43:14.928Z,66.96
2023-03-21T00:48:23.040Z,66.87
2023-03-21T00:53:30.597Z,66.73
2023-03-21T00:58:39.524Z,66.60
2023-03-21T01:03:51.418Z,66.46
2023-03-21T01:08:58.994Z,66.03
2023-03-21T01:14:21.424Z,66.73
2023-03-21T01:19:50.219Z,66.72
2023-03-21T01:25:09.048Z,66.81
2023-03-21T01:30:31.220Z,66.83
2023-03-21T01:35:50.167Z,66.80
2023-03-21T01:41:08.699Z,66.75
2023-03-21T01:46:51.762Z,66.74
2023-03-21T01:52:37.499Z,66.76
2023-03-21T01:58:04.859Z,66.75
2023-03-21T02:03:38.855Z,66.62
2023-03-21T02:09:09.130Z,66.65
2023-03-21T02:14:28.351Z,66.71
2023-03-21T02:20:15.491Z,66.75
2023-03-21T02:25:51.893Z,66.79
2023-03-21T02:31:32.925Z,66.84
2023-03-21T02:37:01.936Z,66.93
2023-03-21T02:42:17.476Z,67.04
2023-03-21T02:47:31.882Z,67.15
2023-03-21T02:52:41.954Z,67.23
2023-03-21T02:57:53.482Z,67.25
2023-03-21T03:03:09.311Z,67.31
2023-03-21T03:08:41.203Z,67.38
2023-03-21T03:14:31.473Z,67.43
2023-03-21T03:19:50.501Z,67.52
2023-03-21T03:25:17.795Z,67.92
2023-03-21T03:30:41.212Z,67.10
2023-03-21T03:36:04.860Z,66.40
2023-03-21T03:41:22.637Z,65.84
2023-03-21T03:46:38.848Z,65.40
2023-03-21T03:51:53.510Z,65.07
2023-03-21T03:57:09.011Z,64.73
2023-03-21T04:02:18.640Z,64.64
2023-03-21T04:07:28.203Z,65.00
2023-03-21T04:12:38.865Z,64.84
2023-03-21T04:18:26.707Z,64.68
2023-03-21T04:23:36.190Z,65.19
2023-03-21T04:28:44.517Z,65.45
2023-03-21T04:34:24.637Z,66.36
2023-03-21T04:39:33.742Z,67.16
2023-03-21T04:44:42.613Z,66.91
2023-03-21T04:49:50.885Z,66.67
2023-03-21T04:54:59.220Z,66.55
2023-03-21T05:00:11.678Z,66.54
2023-03-21T05:05:20.302Z,66.50
2023-03-21T05:10:28.907Z,66.50
2023-03-21T05:15:37.835Z,66.50
2023-03-21T05:20:47.564Z,66.48
2023-03-21T05:25:56.188Z,66.54
2023-03-21T05:31:17.196Z,66.65
2023-03-21T05:36:26.401Z,66.64
2023-03-21T05:41:33.934Z,66.61
2023-03-21T05:46:44.997Z,66.65
2023-03-21T05:51:54.687Z,66.72
2023-03-21T05:57:03.287Z,66.72
2023-03-21T06:02:33.785Z,66.74
2023-03-21T06:07:44.604Z,66.72
2023-03-21T06:12:53.398Z,66.65
2023-03-21T06:18:09.782Z,66.61
2023-03-21T06:23:19.465Z,66.76
2023-03-21T06:28:28.506Z,66.82
2023-03-21T06:33:37.673Z,66.86
2023-03-21T06:38:47.358Z,66.97
2023-03-21T06:43:55.932Z,67.07
2023-03-21T06:49:05.406Z,67.00
2023-03-21T06:54:14.952Z,66.84
2023-03-21T06:59:30.107Z,66.65
2023-03-21T07:04:51.461Z,66.75
2023-03-21T07:10:03.524Z,66.67
2023-03-21T07:15:15.007Z,66.27
2023-03-21T07:20:24.636Z,65.99
2023-03-21T07:25:33.795Z,65.82
2023-03-21T07:30:42.447Z,65.67
2023-03-21T07:35:50.604Z,65.58
2023-03-21T07:41:00.332Z,65.51
2023-03-21T07:46:11.455Z,65.40
2023-03-21T07:51:21.212Z,65.51
2023-03-21T07:56:29.690Z,65.81
2023-03-21T08:01:38.346Z,65.57
2023-03-21T08:06:46.633Z,65.25
2023-03-21T08:11:54.738Z,65.00
2023-03-21T08:17:03.140Z,64.53
2023-03-21T08:22:11.445Z,64.08
2023-03-21T08:27:21.235Z,63.71
2023-03-21T08:32:31.533Z,63.63
2023-03-21T08:37:39.781Z,63.57
2023-03-21T08:42:48.669Z,63.36
2023-03-21T08:47:57.807Z,63.08
2023-03-21T08:53:06.268Z,62.83
2023-03-21T08:58:14.700Z,62.66
2023-03-21T09:03:23.008Z,62.32
2023-03-21T09:08:31.439Z,61.85
2023-03-21T09:13:38.858Z,61.86
2023-03-21T09:18:51.001Z,61.84
2023-03-21T09:23:59.033Z,61.81
2023-03-21T09:29:07.886Z,60.98
2023-03-21T09:34:16.222Z,60.60
2023-03-21T09:39:24.113Z,60.66
2023-03-21T09:44:53.214Z,60.57
2023-03-21T09:50:14.449Z,60.85
2023-03-21T09:55:26.837Z,60.74
2023-03-21T10:00:40.735Z,60.35
2023-03-21T10:05:53.130Z,59.66
2023-03-21T10:11:05.982Z,59.47
2023-03-21T10:16:19.963Z,56.97
2023-03-21T10:26:58.700Z,58.15
2023-03-21T10:32:06.974Z,59.28
2023-03-21T10:37:17.224Z,63.03
2023-03-21T10:42:27.196Z,64.26
2023-03-21T10:47:38.249Z,63.56
2023-03-21T10:52:52.348Z,62.67
2023-03-21T10:58:04.462Z,61.71
2023-03-21T11:03:24.394Z,60.37
2023-03-21T11:08:32.232Z,59.88
2023-03-21T11:13:42.516Z,58.09
2023-03-21T11:18:54.759Z,57.89
2023-03-21T11:24:01.338Z,57.88
2023-03-21T11:29:24.002Z,57.73
2023-03-21T11:34:44.304Z,58.80
2023-03-21T11:39:56.989Z,62.97
2023-03-21T11:45:16.673Z,63.92
2023-03-21T11:50:33.117Z,63.03
2023-03-21T11:55:50.420Z,60.83
2023-03-21T12:01:09.665Z,61.36
2023-03-21T12:06:27.242Z,60.17
2023-03-21T12:11:43.027Z,58.39
2023-03-21T12:17:06.951Z,57.34
2023-03-21T12:22:28.437Z,57.51
2023-03-21T12:27:47.564Z,58.03
2023-03-21T12:33:16.735Z,58.96
2023-03-21T12:38:31.712Z,59.94
2023-03-21T12:43:47.247Z,61.87
2023-03-21T12:48:59.590Z,62.40
2023-03-21T12:54:19.340Z,62.07
2023-03-21T12:59:36.554Z,61.15
2023-03-21T13:04:54.347Z,60.83
2023-03-21T13:10:03.395Z,60.53
2023-03-21T13:15:27.830Z,60.66
2023-03-21T13:20:45.442Z,60.67
2023-03-21T13:25:57.225Z,60.27
2023-03-21T13:31:35.881Z,59.94
2023-03-21T13:36:54.143Z,60.02
2023-03-21T13:42:19.922Z,60.44
2023-03-21T13:47:42.093Z,60.52
2023-03-21T13:53:27.741Z,60.43
2023-03-21T13:58:42.063Z,60.50
2023-03-21T14:03:51.355Z,60.49
2023-03-21T14:09:00.488Z,60.07
2023-03-21T14:14:10.630Z,59.92
2023-03-21T14:19:19.157Z,59.74
2023-03-21T14:24:27.355Z,59.56
2023-03-21T14:29:37.813Z,59.80
2023-03-21T14:34:49.241Z,59.83
2023-03-21T14:40:09.173Z,60.13
2023-03-21T14:45:21.976Z,60.23
2023-03-21T14:50:35.357Z,60.45
2023-03-21T14:55:48.839Z,60.34
2023-03-21T15:01:00.113Z,60.05
2023-03-21T15:06:14.952Z,59.76
2023-03-21T15:11:31.044Z,59.61
2023-03-21T15:16:39.586Z,58.73
2023-03-21T15:21:51.042Z,58.15
2023-03-21T15:27:02.717Z,58.69
2023-03-21T15:32:18.101Z,59.46
2023-03-21T15:37:28.604Z,60.01
2023-03-21T15:42:41.452Z,60.61
2023-03-21T15:47:56.139Z,62.27
2023-03-21T15:53:08.358Z,63.01
2023-03-21T15:58:24.541Z,62.67
2023-03-21T16:03:35.351Z,62.73
2023-03-21T16:08:47.693Z,62.59
2023-03-21T16:13:54.599Z,62.28
2023-03-21T16:19:03.300Z,62.11
2023-03-21T16:24:13.039Z,61.28
2023-03-21T16:29:24.522Z,60.48
2023-03-21T16:34:33.237Z,59.90
2023-03-21T16:39:41.444Z,59.77
2023-03-21T16:44:49.753Z,59.77
2023-03-21T16:49:58.500Z,59.95
2023-03-21T16:55:09.124Z,59.91
2023-03-21T17:00:21.138Z,59.59
2023-03-21T17:05:32.002Z,58.41
2023-03-21T17:10:39.852Z,58.25
2023-03-21T17:15:48.356Z,58.97
2023-03-21T17:21:03.256Z,59.47
2023-03-21T17:26:14.660Z,59.93
2023-03-21T17:31:25.274Z,60.24
2023-03-21T17:36:37.376Z,60.44
2023-03-21T17:41:45.664Z,60.48
2023-03-21T17:46:54.181Z,60.62
2023-03-21T17:52:02.799Z,60.58
2023-03-21T17:57:15.224Z,60.54
2023-03-21T18:02:24.043Z,60.60
2023-03-21T18:08:05.843Z,60.79
2023-03-21T18:13:03.302Z,60.84
2023-03-21T18:18:12.298Z,61.24
2023-03-21T18:23:20.239Z,61.57
2023-03-21T18:28:28.231Z,63.26
2023-03-21T18:33:36.779Z,64.06
2023-03-21T18:38:45.693Z,63.74
2023-03-21T18:44:09.512Z,63.35
2023-03-21T18:54:53.688Z,63.25
2023-03-21T19:00:01.360Z,63.48
2023-03-21T19:05:09.894Z,63.39
2023-03-21T19:10:21.047Z,62.81
2023-03-21T19:15:29.814Z,62.29
2023-03-21T19:20:38.298Z,62.17
2023-03-21T19:25:47.236Z,62.25
2023-03-21T19:30:56.286Z,62.33
2023-03-21T19:36:17.646Z,62.35
2023-03-21T19:41:27.078Z,62.37
2023-03-21T19:46:35.329Z,62.34
2023-03-21T19:51:42.846Z,62.47
2023-03-21T19:56:51.237Z,62.47
2023-03-21T20:02:17.804Z,62.33
2023-03-21T20:07:31.076Z,62.32
2023-03-21T20:12:39.574Z,62.47
2023-03-21T20:17:48.927Z,62.70
2023-03-21T20:23:08.274Z,62.93
2023-03-21T20:28:25.069Z,63.32
2023-03-21T20:33:36.999Z,63.69
2023-03-21T20:38:44.388Z,63.89
2023-03-21T20:44:36.502Z,63.85
2023-03-21T20:49:23.246Z,63.90
2023-03-21T20:54:31.500Z,63.81
2023-03-21T20:59:40.596Z,63.70
2023-03-21T21:05:21.421Z,63.53
2023-03-21T21:10:22.556Z,63.34
2023-03-21T21:15:30.147Z,62.93
2023-03-21T21:20:39.172Z,62.88
2023-03-21T21:25:53.569Z,62.92
2023-03-21T21:31:12.330Z,63.08
2023-03-21T21:36:22.957Z,63.15
2023-03-21T21:41:30.392Z,63.47
2023-03-21T21:46:39.176Z,63.80
2023-03-21T21:51:48.200Z,63.83
2023-03-21T21:56:58.367Z,63.86
2023-03-21T22:02:07.407Z,64.06
2023-03-21T22:07:15.906Z,64.26
2023-03-21T22:12:23.361Z,64.36
2023-03-21T22:17:31.182Z,64.55
2023-03-21T22:22:39.098Z,64.76
2023-03-21T22:27:47.671Z,64.83
2023-03-21T22:33:08.585Z,64.90
2023-03-21T22:38:18.409Z,65.04
2023-03-21T22:43:26.036Z,65.14
2023-03-21T22:48:33.789Z,65.26
2023-03-21T22:53:41.397Z,65.63
2023-03-21T22:58:49.107Z,66.15
2023-03-21T23:03:57.050Z,66.66
2023-03-21T23:09:04.792Z,67.08
2023-03-21T23:14:14.155Z,67.27
2023-03-21T23:19:25.959Z,67.32
2023-03-21T23:24:33.260Z,67.27
2023-03-21T23:29:40.742Z,67.16
2023-03-21T23:34:48.067Z,67.08
2023-03-21T23:39:56.149Z,66.98
2023-03-21T23:45:03.578Z,66.85
2023-03-21T23:50:12.868Z,66.75
2023-03-21T23:55:20.522Z,66.62
